Madera, Pennsylvania
Current Conditions -  °F | °C
As of 7:54 AM on Friday 19 Dec 2014 (Local Time) from KFIG Reporting Station
Overcast Overcast  
Wind Chill: 18°   Ceiling: 2100
Heat Index: 29°   Visibility: 10mi
Dew Point: 21°   Wind: 14mph
Humidity: 72%   Direction: 300°WNW
Pressure: 30.1"   Gusts: NA
Location:  40.83°N, 78.43°W
Report Text: KFIG 191254Z AUTO 30012KT 10SM OVC021 M02/M06 A3010 RMK AO2 SLP210 T10171061
Loading
Personal Weather Stations






























Interactive Weather Map New forecast layout! Learn more

10-Day Weather Forecast

Advertisements
Track Severe Weather on mobile